Airfield :
LOGIN :

Register | Disclaimer

   EN    FR    IT 

 










Legend :    VFR   Marginal VFR   IFR   Intensive IFR   Very Intensive IFR
Visi :
Ceiling :
>= 8 km
>= 3000ft
5 to 8 km
1000 to 3000 ft
1500m to 5 km
500 to 1000 ft
800 to 1500m
200 to 500 ft
< 800m
< 200 ft
Symbols :   Thunderstorms  Fog  Heavy snow  Heavy precipitations  Wind > 20 kt
SIGMETs :     Misc.  Thunderstorms  Icing  Turbulence  Mountain Waves  Volcanic Ashes







- Airport Elevation : 17 ft
- IATA code : GRQ


EHGG - Groningen Eelde

CURRENT METAR :
  • 261225Z AUTO 06006KT 020V150 9999 OVC012 09/06 Q1027 NOSIG

EXPIRED METARs :
  • 261155Z AUTO 07007KT 030V110 9999 OVC011 09/06 Q1027 NOSIG
  • 261125Z AUTO 06007KT 020V090 9999 OVC010 09/06 Q1027 BECMG BKN012
  • 261055Z AUTO 05006KT 030V090 9999 OVC009 08/06 Q1027 BECMG BKN012
  • 261025Z AUTO 07005KT 050V120 9999 OVC009 08/06 Q1027 BECMG BKN012
  • 260955Z AUTO 08005KT 040V110 9999 OVC009 08/06 Q1027 TEMPO BKN004

TAF TAF EHGG
Valid from the 26 at 12:00 until the 27 at 18:00 UTC


261105Z 2612/2718 06006KT 9999 SCT012
PROB40 2612/2616 BKN008 BKN012
BECMG 2621/2624 4000 BR
PROB40 2623/2710 1200 BCFG
PROB30
TEMPO 2700/2709 0600 FG VV000
BECMG 2707/2710 CAVOK
No reported NOTAMs for that airfield.



MET'MAP, your aeronautical weather chart ! - Copyright ORBIFLY December 2007 - Disclaimer

ORBIFLY MET'MAP TEAM :

Programming & Development : Alexandra Zaïnal
Concept & Development : Baudouin d'Aumeries
Co-Development & Prog : Marc-Olivier Méhu
Technical & hardware support : Manuel Goepfert

Contact : metmap@orbifly.com




SOURCES & CREDITS :

   NOAA